createdAt,value
2018-04-27T00:00:25.687Z,7.00
2018-04-27T00:00:57.164Z,7.00
2018-04-27T00:01:28.546Z,7.00
2018-04-27T00:02:00.671Z,7.00
2018-04-27T00:02:33.543Z,7.00
2018-04-27T00:03:04.939Z,7.00
2018-04-27T00:03:36.331Z,7.00
2018-04-27T00:04:08.516Z,7.00
2018-04-27T00:04:39.919Z,7.00
2018-04-27T00:05:12.119Z,7.00
2018-04-27T00:05:43.551Z,7.00
2018-04-27T00:06:15.707Z,7.00
2018-04-27T00:06:47.839Z,7.00
2018-04-27T00:07:19.223Z,7.00
2018-04-27T00:07:51.355Z,7.00
2018-04-27T00:08:22.748Z,7.00
2018-04-27T00:08:54.130Z,7.00
2018-04-27T00:09:25.522Z,7.00
2018-04-27T00:09:56.943Z,7.00
2018-04-27T00:10:28.367Z,7.00
2018-04-27T00:11:00.511Z,7.00
2018-04-27T00:11:31.936Z,7.00
2018-04-27T00:12:03.334Z,7.00
2018-04-27T00:12:34.716Z,7.00
2018-04-27T00:13:06.122Z,7.00
2018-04-27T00:13:37.503Z,7.00
2018-04-27T00:14:08.919Z,7.00
2018-04-27T00:14:40.323Z,7.00
2018-04-27T00:15:11.723Z,7.00
2018-04-27T00:15:43.103Z,7.00
2018-04-27T00:16:15.227Z,7.00
2018-04-27T00:16:46.631Z,7.00
2018-04-27T00:17:18.015Z,7.00
2018-04-27T00:17:49.455Z,7.00
2018-04-27T00:18:20.836Z,7.00
2018-04-27T00:18:52.955Z,6.90
2018-04-27T00:19:24.330Z,6.90
2018-04-27T00:19:55.760Z,6.90
2018-04-27T00:20:27.899Z,6.90
2018-04-27T00:20:59.291Z,6.90
2018-04-27T00:21:30.687Z,6.90
2018-04-27T00:22:02.091Z,6.90
2018-04-27T00:22:33.484Z,6.90
2018-04-27T00:23:05.630Z,6.90
2018-04-27T00:23:38.497Z,6.90
2018-04-27T00:24:09.915Z,6.90
2018-04-27T00:24:56.247Z,6.90
2018-04-27T00:25:27.638Z,6.90
2018-04-27T00:25:59.055Z,6.90
2018-04-27T00:26:31.175Z,6.90
2018-04-27T00:27:02.631Z,6.90
2018-04-27T00:27:34.012Z,6.90
2018-04-27T00:28:05.404Z,7.00
2018-04-27T00:28:36.783Z,6.90
2018-04-27T00:29:08.168Z,6.90
2018-04-27T00:29:39.555Z,6.90
2018-04-27T00:30:11.682Z,6.90
2018-04-27T00:30:43.059Z,6.90
2018-04-27T00:31:15.185Z,6.90
2018-04-27T00:31:47.327Z,6.90
2018-04-27T00:32:18.734Z,6.90
2018-04-27T00:32:50.128Z,6.90
2018-04-27T00:33:21.543Z,6.90
2018-04-27T00:33:52.934Z,6.90
2018-04-27T00:34:25.074Z,6.90
2018-04-27T00:34:56.491Z,6.90
2018-04-27T00:35:27.874Z,6.90
2018-04-27T00:35:59.999Z,6.90
2018-04-27T00:36:31.375Z,6.90
2018-04-27T00:37:02.803Z,6.90
2018-04-27T00:37:34.210Z,6.90
2018-04-27T00:38:05.644Z,6.90
2018-04-27T00:38:37.067Z,6.90
2018-04-27T00:39:08.459Z,6.90
2018-04-27T00:39:39.847Z,6.90
2018-04-27T00:40:11.235Z,6.90
2018-04-27T00:40:42.628Z,6.90
2018-04-27T00:41:14.011Z,6.90
2018-04-27T00:41:45.414Z,6.90
2018-04-27T00:42:16.808Z,6.90
2018-04-27T00:42:48.246Z,6.90
2018-04-27T00:43:19.627Z,6.90
2018-04-27T00:43:51.012Z,6.90
2018-04-27T00:44:22.390Z,6.90
2018-04-27T00:44:54.520Z,6.90
2018-04-27T00:45:25.919Z,6.90
2018-04-27T00:45:57.326Z,6.90
2018-04-27T00:46:28.739Z,7.00
2018-04-27T00:47:00.128Z,7.00
2018-04-27T00:47:31.515Z,7.00
2018-04-27T00:48:02.963Z,7.00
2018-04-27T00:48:34.355Z,7.00
2018-04-27T00:49:05.740Z,7.00
2018-04-27T00:49:37.115Z,6.90
2018-04-27T00:50:09.237Z,6.90
2018-04-27T00:50:40.646Z,6.90
2018-04-27T00:51:12.023Z,6.90
2018-04-27T00:51:43.401Z,6.90
2018-04-27T00:52:15.516Z,6.90
2018-04-27T00:52:59.307Z,6.90
2018-04-27T00:53:30.666Z,6.90
2018-04-27T00:54:02.045Z,6.90
2018-04-27T00:54:33.436Z,6.90
2018-04-27T00:55:04.819Z,6.90
2018-04-27T00:55:36.207Z,6.90
2018-04-27T00:56:07.615Z,7.00
2018-04-27T00:56:39.757Z,7.00
2018-04-27T00:57:11.143Z,6.90
2018-04-27T00:57:43.278Z,7.00
2018-04-27T00:58:15.419Z,7.00
2018-04-27T00:58:46.831Z,6.90
2018-04-27T00:59:18.227Z,7.00
2018-04-27T00:59:50.355Z,7.00
2018-04-27T01:00:21.755Z,6.90
2018-04-27T01:00:53.175Z,7.00
2018-04-27T01:01:25.322Z,7.00
2018-04-27T01:01:57.452Z,7.00
2018-04-27T01:02:29.571Z,7.00
2018-04-27T01:03:00.956Z,7.00
2018-04-27T01:03:32.334Z,7.00
2018-04-27T01:04:04.527Z,7.00
2018-04-27T01:04:35.911Z,7.00
2018-04-27T01:05:07.298Z,7.00
2018-04-27T01:05:38.686Z,7.00
2018-04-27T01:06:10.095Z,7.00
2018-04-27T01:06:41.478Z,7.00
2018-04-27T01:07:13.624Z,7.00
2018-04-27T01:07:45.778Z,7.00
2018-04-27T01:08:17.191Z,7.00
2018-04-27T01:08:48.583Z,7.00
2018-04-27T01:09:20.318Z,7.00
2018-04-27T01:09:51.702Z,7.00
2018-04-27T01:10:23.823Z,7.00
2018-04-27T01:10:55.219Z,7.00
2018-04-27T01:11:26.603Z,7.00
2018-04-27T01:11:57.991Z,7.00
2018-04-27T01:12:29.370Z,7.00
2018-04-27T01:13:00.755Z,7.00
2018-04-27T01:13:32.886Z,7.00
2018-04-27T01:14:04.271Z,7.00
2018-04-27T01:14:35.685Z,7.00
2018-04-27T01:15:07.811Z,7.10
2018-04-27T01:15:40.054Z,7.10
2018-04-27T01:16:11.399Z,7.00
2018-04-27T01:16:42.783Z,7.10
2018-04-27T01:17:14.170Z,7.10
2018-04-27T01:17:45.562Z,7.00
2018-04-27T01:18:16.955Z,7.00
2018-04-27T01:18:48.336Z,7.00
2018-04-27T01:19:19.715Z,7.00
2018-04-27T01:19:51.140Z,7.00
2018-04-27T01:20:23.264Z,7.00
2018-04-27T01:20:54.670Z,7.00
2018-04-27T01:21:26.068Z,7.00
2018-04-27T01:21:57.450Z,7.00
2018-04-27T01:22:28.834Z,7.00
2018-04-27T01:23:00.215Z,7.00
2018-04-27T01:23:31.598Z,7.00
2018-04-27T01:24:02.990Z,7.00
2018-04-27T01:24:35.111Z,7.00
2018-04-27T01:25:07.290Z,7.00
2018-04-27T01:25:39.438Z,7.00
2018-04-27T01:26:10.835Z,7.00
2018-04-27T01:26:42.233Z,7.00
2018-04-27T01:27:14.364Z,7.00
2018-04-27T01:27:45.746Z,7.00
2018-04-27T01:28:17.883Z,7.00
2018-04-27T01:28:49.260Z,7.00
2018-04-27T01:29:20.643Z,7.00
2018-04-27T01:29:52.023Z,7.00
2018-04-27T01:30:24.183Z,7.00
2018-04-27T01:30:56.324Z,7.00
2018-04-27T01:31:27.711Z,7.00
2018-04-27T01:31:59.088Z,7.10
2018-04-27T01:32:30.467Z,7.00
2018-04-27T01:33:02.589Z,7.00
2018-04-27T01:33:33.987Z,7.00
2018-04-27T01:34:05.411Z,7.00
2018-04-27T01:34:36.806Z,7.00
2018-04-27T01:35:08.212Z,7.00
2018-04-27T01:35:39.643Z,7.00
2018-04-27T01:36:11.763Z,7.00
2018-04-27T01:36:43.159Z,7.00
2018-04-27T01:37:14.543Z,7.00
2018-04-27T01:37:45.927Z,7.00
2018-04-27T01:38:17.307Z,7.00
2018-04-27T01:38:48.703Z,7.00
2018-04-27T01:39:20.095Z,7.00
2018-04-27T01:39:51.479Z,7.00
2018-04-27T01:40:23.627Z,7.00
2018-04-27T01:40:55.778Z,7.00
2018-04-27T01:41:27.916Z,7.00
2018-04-27T01:41:59.303Z,7.00
2018-04-27T01:42:30.691Z,7.00
2018-04-27T01:43:02.083Z,7.00
2018-04-27T01:43:34.207Z,7.00
2018-04-27T01:44:05.594Z,7.00
2018-04-27T01:44:36.979Z,7.00
2018-04-27T01:45:08.363Z,7.00
2018-04-27T01:45:39.747Z,7.00
2018-04-27T01:46:11.158Z,7.00
2018-04-27T01:46:42.543Z,7.00
2018-04-27T01:47:13.935Z,7.00
2018-04-27T01:47:45.323Z,7.00
2018-04-27T01:48:16.707Z,7.00
2018-04-27T01:48:48.827Z,7.00
2018-04-27T01:49:20.220Z,7.00
2018-04-27T01:49:51.630Z,7.00
2018-04-27T01:50:23.011Z,7.00
2018-04-27T01:50:54.391Z,7.00
2018-04-27T01:51:25.811Z,7.00
2018-04-27T01:51:57.191Z,7.00
2018-04-27T01:52:28.576Z,7.00
2018-04-27T01:52:59.975Z,7.00
2018-04-27T01:54:32.263Z,7.00
2018-04-27T01:55:04.399Z,7.00
2018-04-27T01:55:35.783Z,7.00
2018-04-27T01:56:07.907Z,7.00
2018-04-27T01:56:39.318Z,7.00
2018-04-27T01:57:10.699Z,7.10
2018-04-27T01:57:42.085Z,7.10
2018-04-27T01:58:13.475Z,7.10
2018-04-27T01:58:44.851Z,7.10
2018-04-27T01:59:16.247Z,7.10
2018-04-27T01:59:47.644Z,7.10
2018-04-27T02:00:19.024Z,7.10
2018-04-27T02:00:50.402Z,7.10
2018-04-27T02:01:22.527Z,7.10
2018-04-27T02:01:53.934Z,7.00
2018-04-27T02:02:25.323Z,7.00
2018-04-27T02:02:57.463Z,7.10
2018-04-27T02:03:28.849Z,7.10
2018-04-27T02:04:00.235Z,7.00
2018-04-27T02:04:31.631Z,7.00
2018-04-27T02:05:03.043Z,7.00
2018-04-27T02:05:34.423Z,7.00
2018-04-27T02:06:05.807Z,7.00
2018-04-27T02:06:37.244Z,7.00
2018-04-27T02:07:08.651Z,7.00
2018-04-27T02:07:40.061Z,7.00
2018-04-27T02:08:12.191Z,7.00
2018-04-27T02:08:43.576Z,7.00
2018-04-27T02:09:15.703Z,7.10
2018-04-27T02:09:47.090Z,7.10
2018-04-27T02:10:18.478Z,7.10
2018-04-27T02:10:49.908Z,7.10
2018-04-27T02:11:21.286Z,7.10
2018-04-27T02:11:53.427Z,7.10
2018-04-27T02:12:24.831Z,7.10
2018-04-27T02:12:56.271Z,7.10
2018-04-27T02:13:27.672Z,7.10
2018-04-27T02:13:59.795Z,7.10
2018-04-27T02:14:31.951Z,7.10
2018-04-27T02:15:03.371Z,7.00
2018-04-27T02:15:34.779Z,7.10
2018-04-27T02:16:06.170Z,7.10
2018-04-27T02:16:37.598Z,7.10
2018-04-27T02:17:08.984Z,7.10
2018-04-27T02:17:40.386Z,7.00
2018-04-27T02:18:11.771Z,7.10
2018-04-27T02:18:43.151Z,7.10
2018-04-27T02:19:14.539Z,7.10
2018-04-27T02:19:45.916Z,7.10
2018-04-27T02:20:17.316Z,7.10
2018-04-27T02:20:49.475Z,7.10
2018-04-27T02:21:20.867Z,7.10
2018-04-27T02:21:52.247Z,7.10
2018-04-27T02:22:25.135Z,7.10
2018-04-27T02:22:56.579Z,7.10
2018-04-27T02:23:28.731Z,7.10
2018-04-27T02:24:00.113Z,7.10
2018-04-27T02:24:32.226Z,7.10
2018-04-27T02:25:03.647Z,7.10
2018-04-27T02:25:35.040Z,7.10
2018-04-27T02:26:07.191Z,7.10
2018-04-27T02:26:38.563Z,7.10
2018-04-27T02:27:09.955Z,7.10
2018-04-27T02:27:41.347Z,7.20
2018-04-27T02:28:12.751Z,7.20
2018-04-27T02:28:44.139Z,7.20
2018-04-27T02:29:15.513Z,7.10
2018-04-27T02:29:46.988Z,7.20
2018-04-27T02:30:18.339Z,7.10
2018-04-27T02:30:49.727Z,7.10
2018-04-27T02:31:21.107Z,7.20
2018-04-27T02:31:53.228Z,7.10
2018-04-27T02:32:24.607Z,7.20
2018-04-27T02:32:56.731Z,7.20
2018-04-27T02:33:28.147Z,7.10
2018-04-27T02:33:59.523Z,7.10
2018-04-27T02:34:30.905Z,7.10
2018-04-27T02:35:02.347Z,7.10
2018-04-27T02:35:33.735Z,7.10
2018-04-27T02:36:05.119Z,7.10
2018-04-27T02:36:37.243Z,7.10
2018-04-27T02:37:10.116Z,7.10
2018-04-27T02:37:41.500Z,7.10
2018-04-27T02:38:13.622Z,7.10
2018-04-27T02:38:45.808Z,7.00
2018-04-27T02:39:17.931Z,7.10
2018-04-27T02:39:50.088Z,7.00
2018-04-27T02:40:21.470Z,7.00
2018-04-27T02:40:53.601Z,7.00
2018-04-27T02:41:24.983Z,7.00
2018-04-27T02:41:56.367Z,6.90
2018-04-27T02:42:27.759Z,6.90
2018-04-27T02:42:59.882Z,6.90
2018-04-27T02:43:31.271Z,6.90
2018-04-27T02:44:02.724Z,6.90
2018-04-27T02:44:34.116Z,6.90
2018-04-27T02:45:06.247Z,6.90
2018-04-27T02:45:37.651Z,6.90
2018-04-27T02:46:09.047Z,6.90
2018-04-27T02:46:41.177Z,6.90
2018-04-27T02:47:12.571Z,6.90
2018-04-27T02:47:44.718Z,6.80
2018-04-27T02:48:16.099Z,6.80
2018-04-27T02:48:47.492Z,6.80
2018-04-27T02:49:19.661Z,6.80
2018-04-27T02:49:51.049Z,6.80
2018-04-27T02:50:22.439Z,6.80
2018-04-27T02:50:53.859Z,6.80
2018-04-27T02:51:25.267Z,6.80
2018-04-27T02:51:56.659Z,6.70
2018-04-27T02:52:28.043Z,6.70
2018-04-27T02:52:59.425Z,6.70
2018-04-27T02:53:30.843Z,6.70
2018-04-27T02:54:02.243Z,6.70
2018-04-27T02:54:40.792Z,6.70
2018-04-27T02:55:12.210Z,6.70
2018-04-27T02:55:43.588Z,6.70
2018-04-27T02:56:14.963Z,6.60
2018-04-27T02:56:47.107Z,6.60
2018-04-27T02:57:18.504Z,6.60
2018-04-27T02:57:49.882Z,6.60
2018-04-27T02:58:21.259Z,6.60
2018-04-27T02:58:53.388Z,6.50
2018-04-27T02:59:24.816Z,6.50
2018-04-27T02:59:56.230Z,6.50
2018-04-27T03:00:27.606Z,6.50
2018-04-27T03:00:58.990Z,6.50
2018-04-27T03:01:30.372Z,6.40
2018-04-27T03:02:01.755Z,6.40
2018-04-27T03:02:33.883Z,6.40
2018-04-27T03:03:05.263Z,6.40
2018-04-27T03:03:36.645Z,6.40
2018-04-27T03:04:08.787Z,6.40
2018-04-27T03:04:40.199Z,6.40
2018-04-27T03:05:12.399Z,6.30
2018-04-27T03:05:43.783Z,6.30
2018-04-27T03:06:15.189Z,6.30
2018-04-27T03:06:46.626Z,6.30
2018-04-27T03:07:18.007Z,6.30
2018-04-27T03:07:49.400Z,6.30
2018-04-27T03:08:20.795Z,6.30
2018-04-27T03:08:52.176Z,6.20
2018-04-27T03:09:23.576Z,6.20
2018-04-27T03:09:54.992Z,6.20
2018-04-27T03:10:26.407Z,6.20
2018-04-27T03:10:57.800Z,6.20
2018-04-27T03:11:29.183Z,6.20
2018-04-27T03:12:00.588Z,6.20
2018-04-27T03:12:31.992Z,6.10
2018-04-27T03:13:03.409Z,6.10
2018-04-27T03:13:34.837Z,6.10
2018-04-27T03:14:06.222Z,6.10
2018-04-27T03:14:37.663Z,6.10
2018-04-27T03:15:09.073Z,6.10
2018-04-27T03:15:40.511Z,6.10
2018-04-27T03:16:11.915Z,6.10
2018-04-27T03:16:44.047Z,6.10
2018-04-27T03:17:15.431Z,6.10
2018-04-27T03:17:47.565Z,6.20
2018-04-27T03:18:18.946Z,6.10
2018-04-27T03:18:50.367Z,6.20
2018-04-27T03:19:22.503Z,6.20
2018-04-27T03:19:53.887Z,6.20
2018-04-27T03:20:25.270Z,6.20
2018-04-27T03:20:56.683Z,6.20
2018-04-27T03:21:28.070Z,6.20
2018-04-27T03:21:59.455Z,6.20
2018-04-27T03:22:30.844Z,6.20
2018-04-27T03:23:02.230Z,6.20
2018-04-27T03:23:33.618Z,6.20
2018-04-27T03:24:05.003Z,6.20
2018-04-27T03:24:36.414Z,6.20
2018-04-27T03:25:07.811Z,6.20
2018-04-27T03:25:39.212Z,6.10
2018-04-27T03:26:11.366Z,6.10
2018-04-27T03:26:42.760Z,6.10
2018-04-27T03:27:14.143Z,6.10
2018-04-27T03:27:45.519Z,6.10
2018-04-27T03:28:16.902Z,6.10
2018-04-27T03:28:48.287Z,6.10
2018-04-27T03:29:19.687Z,6.10
2018-04-27T03:29:51.075Z,6.10
2018-04-27T03:30:22.460Z,6.10
2018-04-27T03:30:53.847Z,6.10
2018-04-27T03:31:26.004Z,6.10
2018-04-27T03:31:58.129Z,6.10
2018-04-27T03:32:30.321Z,6.10
2018-04-27T03:33:01.769Z,6.10
2018-04-27T03:33:33.119Z,6.20
2018-04-27T03:34:04.719Z,6.10
2018-04-27T03:34:36.107Z,6.10
2018-04-27T03:35:07.492Z,6.10
2018-04-27T03:35:38.888Z,6.20
2018-04-27T03:36:10.278Z,6.10
2018-04-27T03:36:42.475Z,6.20
2018-04-27T03:37:14.599Z,6.10
2018-04-27T03:37:45.995Z,6.10
2018-04-27T03:38:17.392Z,6.10
2018-04-27T03:38:48.778Z,6.10
2018-04-27T03:39:20.169Z,6.10
2018-04-27T03:39:51.562Z,6.10
2018-04-27T03:40:22.951Z,6.10
2018-04-27T03:40:54.340Z,6.10
2018-04-27T03:41:25.731Z,6.20
2018-04-27T03:41:57.145Z,6.20
2018-04-27T03:42:28.531Z,6.10
2018-04-27T03:43:00.672Z,6.20
2018-04-27T03:43:33.547Z,6.10
2018-04-27T03:44:04.931Z,6.20
2018-04-27T03:44:36.315Z,6.20
2018-04-27T03:45:07.738Z,6.20
2018-04-27T03:45:39.130Z,6.10
2018-04-27T03:46:10.512Z,6.20
2018-04-27T03:46:41.897Z,6.20
2018-04-27T03:47:13.308Z,6.10
2018-04-27T03:47:44.695Z,6.10
2018-04-27T03:48:16.079Z,6.10
2018-04-27T03:48:47.455Z,6.10
2018-04-27T03:49:18.838Z,6.10
2018-04-27T03:49:50.258Z,6.10
2018-04-27T03:50:21.639Z,6.10
2018-04-27T03:50:53.056Z,6.10
2018-04-27T03:51:25.175Z,6.10
2018-04-27T03:51:56.610Z,6.10
2018-04-27T03:52:28.020Z,6.10
2018-04-27T03:52:59.413Z,6.00
2018-04-27T03:53:30.804Z,6.10
2018-04-27T03:54:02.219Z,6.00
2018-04-27T03:54:34.346Z,6.10
2018-04-27T03:55:05.730Z,6.10
2018-04-27T03:55:37.118Z,6.10
2018-04-27T03:56:08.523Z,6.10
2018-04-27T03:56:39.927Z,6.10
2018-04-27T03:57:11.311Z,6.00
2018-04-27T03:57:42.738Z,6.10
2018-04-27T03:58:14.121Z,6.10
2018-04-27T03:58:45.504Z,6.10
2018-04-27T04:00:41.156Z,6.00
2018-04-27T04:01:24.779Z,6.00
2018-04-27T04:02:08.447Z,6.00
2018-04-27T04:02:52.103Z,6.00
2018-04-27T04:03:35.748Z,6.00
2018-04-27T04:04:19.438Z,6.00
2018-04-27T04:05:03.176Z,6.00
2018-04-27T04:05:34.563Z,6.00
2018-04-27T04:06:05.954Z,6.00
2018-04-27T04:06:37.355Z,6.00
2018-04-27T04:07:08.776Z,6.00
2018-04-27T04:07:40.912Z,6.00
2018-04-27T04:08:12.320Z,6.00
2018-04-27T04:08:43.703Z,6.00
2018-04-27T04:09:15.924Z,6.00
2018-04-27T04:09:47.271Z,6.00
2018-04-27T04:10:18.651Z,6.00
2018-04-27T04:10:50.791Z,6.00
2018-04-27T04:11:22.183Z,6.00
2018-04-27T04:11:53.590Z,6.00
2018-04-27T04:12:25.733Z,6.00
2018-04-27T04:12:57.185Z,6.00
2018-04-27T04:13:28.551Z,6.00
2018-04-27T04:13:59.934Z,6.00
2018-04-27T04:14:31.316Z,6.00
2018-04-27T04:15:02.745Z,6.00
2018-04-27T04:15:34.131Z,6.00
2018-04-27T04:16:05.515Z,6.00
2018-04-27T04:16:37.700Z,6.10
2018-04-27T04:17:09.824Z,6.10
2018-04-27T04:17:41.203Z,6.00
2018-04-27T04:18:13.329Z,6.10
2018-04-27T04:18:44.783Z,6.10
2018-04-27T04:19:16.171Z,6.10
2018-04-27T04:19:47.559Z,6.10
2018-04-27T04:20:18.947Z,6.10
2018-04-27T04:20:50.327Z,6.10
2018-04-27T04:21:21.710Z,6.10
2018-04-27T04:21:53.839Z,6.20
2018-04-27T04:22:25.223Z,6.20
2018-04-27T04:22:56.627Z,6.20
2018-04-27T04:23:28.024Z,6.20
2018-04-27T04:23:59.536Z,6.20
2018-04-27T04:24:30.872Z,6.20
2018-04-27T04:25:04.980Z,6.20
2018-04-27T04:25:36.884Z,6.20
2018-04-27T04:26:08.321Z,6.20
2018-04-27T04:26:39.732Z,6.30
2018-04-27T04:27:11.144Z,6.30
2018-04-27T04:27:43.302Z,6.30
2018-04-27T04:28:15.471Z,6.30
2018-04-27T04:28:47.621Z,6.30
2018-04-27T04:29:19.801Z,6.40
2018-04-27T04:29:51.227Z,6.40
2018-04-27T04:30:23.389Z,6.40
2018-04-27T04:30:55.545Z,6.40
2018-04-27T04:31:27.696Z,6.40
2018-04-27T04:31:59.868Z,6.50
2018-04-27T04:32:32.022Z,6.50
2018-04-27T04:33:03.477Z,6.40
2018-04-27T04:33:42.552Z,6.50
2018-04-27T04:34:13.988Z,6.50
2018-04-27T04:34:45.456Z,6.40
2018-04-27T04:35:16.872Z,6.50
2018-04-27T04:35:48.259Z,6.50
2018-04-27T04:36:20.416Z,6.50
2018-04-27T04:36:52.580Z,6.50
2018-04-27T04:37:24.736Z,6.60
2018-04-27T04:37:56.164Z,6.50
2018-04-27T04:38:27.574Z,6.50
2018-04-27T04:38:58.993Z,6.60
2018-04-27T04:39:30.401Z,6.60
2018-04-27T04:40:02.620Z,6.70
2018-04-27T04:40:34.007Z,6.70
2018-04-27T04:41:06.135Z,6.70
2018-04-27T04:41:37.520Z,6.70
2018-04-27T04:42:08.915Z,6.80
2018-04-27T04:42:40.304Z,6.80
2018-04-27T04:43:11.691Z,6.80
2018-04-27T04:43:43.078Z,6.80
2018-04-27T04:44:15.239Z,6.90
2018-04-27T04:44:46.626Z,6.90
2018-04-27T04:45:18.041Z,6.90
2018-04-27T04:45:49.427Z,6.90
2018-04-27T04:46:20.815Z,6.90
2018-04-27T04:46:52.195Z,7.00
2018-04-27T04:47:23.587Z,7.00
2018-04-27T04:47:54.975Z,7.10
2018-04-27T04:48:26.364Z,7.10
2018-04-27T04:48:57.755Z,7.20
2018-04-27T04:49:29.178Z,7.30
2018-04-27T04:50:00.615Z,7.30
2018-04-27T04:50:32.043Z,7.40
2018-04-27T04:51:03.495Z,7.60
2018-04-27T04:51:34.879Z,7.70
2018-04-27T04:52:06.305Z,7.70
2018-04-27T04:52:37.723Z,7.70
2018-04-27T04:53:09.115Z,7.80
2018-04-27T04:53:40.499Z,7.80
2018-04-27T04:54:11.884Z,7.80
2018-04-27T04:54:43.313Z,7.90
2018-04-27T04:55:14.703Z,8.00
2018-04-27T04:55:46.847Z,8.20
2018-04-27T04:56:18.983Z,8.20
2018-04-27T04:56:50.375Z,8.20
2018-04-27T04:57:21.755Z,8.30
2018-04-27T04:57:53.192Z,8.40
2018-04-27T04:58:24.571Z,8.50
2018-04-27T04:58:56.691Z,8.60
2018-04-27T04:59:28.075Z,8.50
2018-04-27T05:00:00.194Z,8.70
2018-04-27T05:00:31.581Z,8.60
2018-04-27T05:01:03.730Z,8.70
2018-04-27T05:01:35.864Z,8.80
2018-04-27T05:02:07.259Z,8.80
2018-04-27T05:02:38.647Z,8.80
2018-04-27T05:03:10.028Z,8.80
2018-04-27T05:03:42.183Z,8.90
2018-04-27T05:04:14.339Z,8.90
2018-04-27T05:04:45.734Z,8.90
2018-04-27T05:05:17.127Z,8.90
2018-04-27T05:05:48.551Z,9.00
2018-04-27T05:06:20.758Z,9.00
2018-04-27T05:06:52.144Z,9.00
2018-04-27T05:07:24.315Z,9.10
2018-04-27T05:07:56.435Z,9.10
2018-04-27T05:08:27.834Z,9.10
2018-04-27T05:08:59.215Z,9.20
2018-04-27T05:09:30.599Z,9.20
2018-04-27T05:10:02.019Z,9.20
2018-04-27T05:10:33.415Z,9.20
2018-04-27T05:11:04.815Z,9.20
2018-04-27T05:11:36.999Z,9.20
2018-04-27T05:12:08.383Z,9.20
2018-04-27T05:12:39.775Z,9.30
2018-04-27T05:13:11.175Z,9.30
2018-04-27T05:13:42.560Z,9.30
2018-04-27T05:14:13.958Z,9.40
2018-04-27T05:14:45.355Z,9.30
2018-04-27T05:15:16.739Z,9.40
2018-04-27T05:15:48.127Z,9.40
2018-04-27T05:16:19.511Z,9.50
2018-04-27T05:16:50.924Z,9.50
2018-04-27T05:17:22.343Z,9.60
2018-04-27T05:17:53.766Z,9.70
2018-04-27T05:18:36.895Z,9.90
2018-04-27T05:19:09.078Z,10.10
2018-04-27T05:19:40.523Z,10.00
2018-04-27T05:20:11.731Z,10.20
2018-04-27T05:20:43.219Z,10.30
2018-04-27T05:21:14.634Z,10.50
2018-04-27T05:21:46.016Z,10.80
2018-04-27T05:22:17.435Z,11.00
2018-04-27T05:22:48.820Z,11.10
2018-04-27T05:23:20.236Z,11.20
2018-04-27T05:23:51.684Z,11.40
2018-04-27T05:24:23.108Z,11.50
2018-04-27T05:24:54.475Z,11.70
2018-04-27T05:25:25.888Z,11.90
2018-04-27T05:25:57.307Z,12.20
2018-04-27T05:26:28.739Z,12.40
2018-04-27T05:27:00.150Z,12.70
2018-04-27T05:27:32.365Z,13.40
2018-04-27T05:28:03.738Z,13.40
2018-04-27T05:28:35.919Z,14.30
2018-04-27T05:29:08.071Z,14.60
2018-04-27T05:29:40.301Z,15.10
2018-04-27T05:30:11.702Z,15.10
2018-04-27T05:30:43.148Z,15.30
2018-04-27T05:31:22.638Z,15.30
2018-04-27T05:31:54.071Z,15.60
2018-04-27T05:32:25.491Z,15.90
2018-04-27T05:33:02.963Z,16.20
2018-04-27T05:33:34.405Z,16.50
2018-04-27T05:34:05.855Z,16.50
2018-04-27T05:34:37.295Z,16.70
2018-04-27T05:35:08.707Z,17.00
2018-04-27T05:35:40.140Z,17.10
2018-04-27T05:36:11.600Z,17.30
2018-04-27T05:36:43.063Z,17.50
2018-04-27T05:37:14.898Z,17.70
2018-04-27T05:37:46.283Z,18.00
2018-04-27T05:38:17.714Z,18.20
2018-04-27T05:38:49.139Z,18.30
2018-04-27T05:39:20.571Z,18.60
2018-04-27T05:39:51.999Z,18.80
2018-04-27T05:40:23.447Z,18.60
2018-04-27T05:40:54.899Z,18.60
2018-04-27T05:41:26.359Z,18.60
2018-04-27T05:41:57.819Z,18.70
2018-04-27T05:42:29.268Z,18.90
2018-04-27T05:43:01.467Z,18.90
2018-04-27T05:43:32.928Z,18.90
2018-04-27T05:44:04.388Z,18.80
2018-04-27T05:44:35.829Z,18.80
2018-04-27T05:45:07.276Z,18.90
2018-04-27T05:45:38.679Z,18.90
2018-04-27T05:46:10.175Z,18.80
2018-04-27T05:46:41.623Z,18.90
2018-04-27T05:47:13.051Z,18.80
2018-04-27T05:47:44.511Z,18.60
2018-04-27T05:48:16.036Z,18.90
2018-04-27T05:48:48.203Z,19.40
2018-04-27T05:49:19.651Z,19.40
2018-04-27T05:49:51.107Z,19.60
2018-04-27T05:50:23.295Z,19.70
2018-04-27T05:50:54.756Z,19.80
2018-04-27T05:51:26.195Z,19.80
2018-04-27T05:51:57.617Z,19.80
2018-04-27T05:52:29.031Z,19.80
2018-04-27T05:53:00.471Z,20.00
2018-04-27T05:53:32.651Z,19.80
2018-04-27T05:54:04.230Z,19.80
2018-04-27T05:54:35.658Z,19.80
2018-04-27T05:55:07.051Z,19.70
2018-04-27T05:55:38.471Z,19.80
2018-04-27T05:56:09.931Z,19.80
2018-04-27T05:56:41.367Z,19.60
2018-04-27T05:57:12.786Z,19.60
2018-04-27T05:57:44.935Z,19.50
2018-04-27T05:58:16.395Z,19.50
2018-04-27T05:58:47.828Z,19.50
2018-04-27T05:59:19.275Z,19.40
2018-04-27T05:59:50.687Z,19.40
2018-04-27T06:00:22.116Z,19.40
2018-04-27T06:00:53.547Z,19.50
2018-04-27T06:01:25.691Z,19.50
2018-04-27T06:01:57.082Z,19.60
2018-04-27T06:02:28.471Z,19.60
2018-04-27T06:03:00.651Z,19.60
2018-04-27T06:03:45.088Z,19.60
2018-04-27T06:04:16.439Z,19.60
2018-04-27T06:04:48.627Z,19.30
2018-04-27T06:05:20.040Z,19.20
2018-04-27T06:05:52.202Z,18.80
2018-04-27T06:06:23.647Z,18.80
2018-04-27T06:06:55.791Z,18.50
2018-04-27T06:07:27.215Z,18.50
2018-04-27T06:07:58.604Z,18.40
2018-04-27T06:08:29.999Z,18.40
2018-04-27T06:09:01.401Z,18.20
2018-04-27T06:09:32.824Z,18.00
2018-04-27T06:10:05.034Z,17.40
2018-04-27T06:10:36.427Z,17.40
2018-04-27T06:11:07.863Z,17.30
2018-04-27T06:11:39.295Z,17.00
2018-04-27T06:12:11.435Z,16.60
2018-04-27T06:12:42.831Z,16.60
2018-04-27T06:13:14.223Z,16.40
2018-04-27T06:13:45.623Z,16.10
2018-04-27T06:14:17.042Z,15.80
2018-04-27T06:14:48.467Z,15.60
2018-04-27T06:15:20.647Z,15.20
2018-04-27T06:15:52.058Z,15.10
2018-04-27T06:16:23.454Z,15.00
2018-04-27T06:16:54.843Z,14.90
2018-04-27T06:17:27.003Z,14.70
2018-04-27T06:17:59.146Z,14.60
2018-04-27T06:18:30.551Z,14.60
2018-04-27T06:19:01.951Z,14.60
2018-04-27T06:19:34.084Z,14.50
2018-04-27T06:20:06.983Z,14.40
2018-04-27T06:20:39.143Z,14.30
2018-04-27T06:21:11.307Z,14.10
2018-04-27T06:21:42.727Z,14.10
2018-04-27T06:22:14.186Z,14.10
2018-04-27T06:22:46.379Z,14.00
2018-04-27T06:23:17.772Z,14.00
2018-04-27T06:23:49.198Z,14.00
2018-04-27T06:24:20.595Z,14.00
2018-04-27T06:24:52.003Z,14.00
2018-04-27T06:25:24.147Z,14.00
2018-04-27T06:25:55.607Z,13.90
2018-04-27T06:26:27.775Z,13.90
2018-04-27T06:26:59.923Z,13.80
2018-04-27T06:27:31.337Z,13.80
2018-04-27T06:28:02.755Z,13.80
2018-04-27T06:28:34.190Z,13.90
2018-04-27T06:29:05.643Z,13.80
2018-04-27T06:29:37.063Z,13.70
2018-04-27T06:30:08.491Z,13.70
2018-04-27T06:30:39.947Z,13.70
2018-04-27T06:31:11.400Z,13.70
2018-04-27T06:31:42.815Z,13.60
2018-04-27T06:32:14.235Z,13.40
2018-04-27T06:32:46.409Z,13.30
2018-04-27T06:33:18.535Z,13.40
2018-04-27T06:33:49.937Z,13.40
2018-04-27T06:34:21.351Z,13.50
2018-04-27T06:35:00.443Z,13.60
2018-04-27T06:35:31.847Z,13.60
2018-04-27T06:36:03.247Z,13.60
2018-04-27T06:36:34.671Z,13.70
2018-04-27T06:37:06.068Z,13.70
2018-04-27T06:37:37.487Z,13.80
2018-04-27T06:38:09.667Z,13.90
2018-04-27T06:38:41.109Z,13.90
2018-04-27T06:39:12.514Z,13.90
2018-04-27T06:39:44.663Z,14.00
2018-04-27T06:40:16.075Z,14.00
2018-04-27T06:40:47.544Z,14.00
2018-04-27T06:41:18.976Z,14.10
2018-04-27T06:41:50.459Z,14.10
2018-04-27T06:42:21.914Z,14.10
2018-04-27T06:42:53.358Z,14.00
2018-04-27T06:43:24.804Z,14.10
2018-04-27T06:43:56.252Z,14.10
2018-04-27T06:44:27.683Z,14.20
2018-04-27T06:44:59.146Z,14.10
2018-04-27T06:45:30.594Z,14.10
2018-04-27T06:46:02.040Z,14.10
2018-04-27T06:46:33.483Z,14.00
2018-04-27T06:47:04.980Z,14.10
2018-04-27T06:47:36.436Z,14.10
2018-04-27T06:48:07.885Z,14.10
2018-04-27T06:48:39.323Z,14.10
2018-04-27T06:49:10.717Z,14.10
2018-04-27T06:49:42.136Z,14.10
2018-04-27T06:50:14.312Z,14.10
2018-04-27T06:50:46.507Z,14.00
2018-04-27T06:51:17.967Z,14.00
2018-04-27T06:51:49.423Z,14.00
2018-04-27T06:52:20.903Z,14.00
2018-04-27T06:52:52.321Z,14.00
2018-04-27T06:53:23.739Z,14.00
2018-04-27T06:53:55.173Z,14.00
2018-04-27T06:54:26.590Z,14.00
2018-04-27T06:54:57.982Z,13.80
2018-04-27T06:55:29.411Z,13.80
2018-04-27T06:56:00.839Z,13.80
2018-04-27T06:56:32.287Z,13.90
2018-04-27T06:57:03.743Z,13.90
2018-04-27T06:57:35.199Z,13.90
2018-04-27T06:58:21.550Z,13.90
2018-04-27T06:58:53.003Z,13.90
2018-04-27T06:59:24.544Z,13.90
2018-04-27T06:59:55.923Z,13.90
2018-04-27T07:00:27.384Z,13.90
2018-04-27T07:00:58.847Z,13.90
2018-04-27T07:01:31.035Z,13.90
2018-04-27T07:02:02.476Z,13.90